Accueil
METAR-TAF:

METAR-TAF

Aéroports :

Liège, Belgique

Aéroport de Liège

latitude: 50-39N, longitude: 005-27E, altitude: 186 m

Observation

Le bulletin a été fait il y a 23 minutes, à 10:20 UTC
Vent 11 kt de ouest/sud-ouest
Température 18°C
Humidité 64%
Pression 998 hPa
Visibilité 10 km ou plus
Nuages épars à une hauteur de 2700 ft
Nuages fragmentés à une hauteur de 3500 ft

METAR: EBLG 291020Z 24011KT 9999 SCT027 BKN035 18/11 Q0998 NOSIG

Heure: 12:43 (10:43 UTC)

Prévision

Le bulletin a été fait il y a 5 heures et 33 minutes, à 05:10 UTC
Prévision valable du 29 à 06 UTC au 30 à 12 UTC
Vent 8 kt de sud-ouest
Visibilité 10 km ou plus
Nuages épars à une hauteur de 2000 ft
Probabilité 40% :
Temporairement
du 29 à 12 UTC au 29 à 16 UTC
averses de pluie

TAF: EBLG 290510Z 2906/3012 23008KT 9999 SCT020 PROB40 TEMPO 2912/2916 SHRA

Observations et prévisions météorologiques de plus de 4000 aéroports (messages METAR et TAF).

Les stations disponibles sont représentées par des disques jaunes et rouges sur la carte.

Passer la souris dessus pour voir le nom de la station.

Cliquer dessus pour voir les observations et prévisions météorologiques.

Pour changer de carte: cliquez sur les boutons verts avec une croix noire pour zoomer, sur le bouton vert avec un tiret pour effectuer un zoom arrière, ou sur les flèches vertes pour les cartes adjacentes.


METAR-TAF: